Decoded Metar for RJFF (FUKUOKA in JAPAN) (IATA:FUK) | Meteo·Mobile Aviation Weather
aviador You're here:

RJFF Decoded Metar

FUKUOKA in JAPAN
Report Time2019-07-24 05:30:00
UTC Time2019-07-24 05:43:44
Flight Rules vfr VFR
Wind310° at 08 kt
W.Decomp.*RWY 34: 7.3 kt HW 3.3 kt LCW
Visibility9999 m
Phenomena:N/A
Clouds:Few 025 Hf
Scattered 035 Hf
Broken 040 Hf
Expected CloudBase > 2,800 ft AGL from Temp-Dew spread
Ceiling4,000 ft
Temp31°C (ISA +16)
Dew Point24°C (66% RH)
Heat Index36.4°C
QNH1006 hPa
Density Alt2,503 ft
Elevation39 ft
Report Wrong Elevation
Raw Report
METAR RJFF 240530Z 31008KT 9999 FEW025 SCT035 BKN040 31/24 Q1006
NOSIG=

Extra information for RJFF:More info

Metar Taf Metar & Taf Last 4 Metars F.Rules Stats Wind Profile Meteogram Temp Stats Airport Information Weather charts Add Link Nearby VenuesMetar ALERT Operation Metar Decoded Social comments